This is the latest recevied weather packets stored in our database for station/object DB5ZQ. If no packets are shown the sender has not sent any weather packets the latest 10 day(s).
| Time | Temp. | Humidity | Pressure | Rain* | Wind** | Luminosity | Snow |
|---|---|---|---|---|---|---|---|
| 1777549260 | 21.11° C | 20% | 1024 hPa | 0 mm | - | - | - |
| 1777548960 | 21.11° C | 20% | 1024 hPa | 0 mm | - | - | - |
| 1777548660 | 20.56° C | 20% | 1024.1 hPa | 0 mm | - | - | - |
| 1777548360 | 20.56° C | 20% | 1024.2 hPa | 0 mm | - | - | - |
| 1777548059 | 20.56° C | 22% | 1024.2 hPa | 0 mm | - | - | - |
| 1777547759 | 20° C | 22% | 1024.3 hPa | 0 mm | - | - | - |
| 1777547459 | 20° C | 22% | 1024.4 hPa | 0 mm | - | - | - |
| 1777547159 | 19.44° C | 23% | 1024.5 hPa | 0 mm | - | - | - |
| 1777546858 | 19.44° C | 23% | 1024.5 hPa | 0 mm | - | - | - |
| 1777546558 | 19.44° C | 24% | 1024.7 hPa | 0 mm | - | - | - |
| 1777546258 | 18.89° C | 25% | 1024.7 hPa | 0 mm | - | - | - |
| 1777545957 | 18.89° C | 26% | 1024.8 hPa | 0 mm | - | - | - |
| 1777545657 | 18.33° C | 26% | 1024.8 hPa | 0 mm | - | - | - |
| 1777545357 | 18.33° C | 27% | 1024.9 hPa | 0 mm | - | - | - |
| 1777545056 | 17.78° C | 27% | 1024.9 hPa | 0 mm | - | - | - |
| 1777544756 | 17.78° C | 27% | 1025 hPa | 0 mm | - | - | - |
| 1777544456 | 17.78° C | 28% | 1025 hPa | 0 mm | - | - | - |
| 1777544156 | 17.22° C | 29% | 1024.9 hPa | 0 mm | - | - | - |
| 1777543855 | 17.22° C | 29% | 1025 hPa | 0 mm | - | - | - |
| 1777543555 | 16.67° C | 29% | 1024.9 hPa | 0 mm | - | - | - |
| 1777543255 | 16.67° C | 31% | 1025 hPa | 0 mm | - | - | - |
| 1777542954 | 16.67° C | 31% | 1025.2 hPa | 0 mm | - | - | - |
| 1777542654 | 16.11° C | 30% | 1025.1 hPa | 0 mm | - | - | - |
| 1777542354 | 15.56° C | 31% | 1025.1 hPa | 0 mm | - | - | - |
| 1777542054 | 15.56° C | 31% | 1025.2 hPa | 0 mm | - | - | - |
* Rain latest hour (hover to see other rain measurements)
** Current wind speed in m/s (hover to see current wind gust speed)